sensor_id;sensor_type;location;lat;lon;timestamp;temperature;humidity
12470;DHT22;36499;46.484;13.832;2023-07-29T00:01:59;15.30;99.90
12470;DHT22;36499;46.484;13.832;2023-07-29T00:04:26;15.30;99.90
12470;DHT22;36499;46.484;13.832;2023-07-29T00:06:53;15.30;99.90
12470;DHT22;36499;46.484;13.832;2023-07-29T00:09:20;15.30;99.90
12470;DHT22;36499;46.484;13.832;2023-07-29T00:11:49;15.40;99.90
12470;DHT22;36499;46.484;13.832;2023-07-29T00:14:16;15.40;99.90
12470;DHT22;36499;46.484;13.832;2023-07-29T00:16:43;15.50;99.90
12470;DHT22;36499;46.484;13.832;2023-07-29T00:19:10;15.50;99.90
12470;DHT22;36499;46.484;13.832;2023-07-29T00:21:37;15.50;99.90
12470;DHT22;36499;46.484;13.832;2023-07-29T00:24:04;15.50;99.90
12470;DHT22;36499;46.484;13.832;2023-07-29T00:26:31;15.60;99.90
12470;DHT22;36499;46.484;13.832;2023-07-29T00:28:59;15.60;99.90
12470;DHT22;36499;46.484;13.832;2023-07-29T00:31:26;15.60;99.90
12470;DHT22;36499;46.484;13.832;2023-07-29T00:33:53;15.60;99.90
12470;DHT22;36499;46.484;13.832;2023-07-29T00:36:20;15.70;99.90
12470;DHT22;36499;46.484;13.832;2023-07-29T00:38:47;15.70;99.90
12470;DHT22;36499;46.484;13.832;2023-07-29T00:41:15;15.70;99.90
12470;DHT22;36499;46.484;13.832;2023-07-29T00:43:42;15.70;99.90
12470;DHT22;36499;46.484;13.832;2023-07-29T00:46:11;15.70;99.90
12470;DHT22;36499;46.484;13.832;2023-07-29T00:48:39;15.70;99.90
12470;DHT22;36499;46.484;13.832;2023-07-29T00:51:06;15.60;99.90
12470;DHT22;36499;46.484;13.832;2023-07-29T00:53:33;15.60;99.90
12470;DHT22;36499;46.484;13.832;2023-07-29T00:56:01;15.60;99.90
12470;DHT22;36499;46.484;13.832;2023-07-29T00:58:28;15.60;99.90
12470;DHT22;36499;46.484;13.832;2023-07-29T01:00:55;15.60;99.90
12470;DHT22;36499;46.484;13.832;2023-07-29T01:03:24;15.60;99.90
12470;DHT22;36499;46.484;13.832;2023-07-29T01:06:01;15.60;99.90
12470;DHT22;36499;46.484;13.832;2023-07-29T01:11:33;15.60;99.90
12470;DHT22;36499;46.484;13.832;2023-07-29T01:14:26;15.70;99.90
12470;DHT22;36499;46.484;13.832;2023-07-29T01:17:03;15.70;99.90
12470;DHT22;36499;46.484;13.832;2023-07-29T01:19:48;15.70;99.90
12470;DHT22;36499;46.484;13.832;2023-07-29T01:22:26;15.80;99.90
12470;DHT22;36499;46.484;13.832;2023-07-29T01:24:57;15.80;99.90
12470;DHT22;36499;46.484;13.832;2023-07-29T01:27:24;16.00;99.90
12470;DHT22;36499;46.484;13.832;2023-07-29T01:29:52;16.00;99.90
12470;DHT22;36499;46.484;13.832;2023-07-29T01:32:28;16.00;99.90
12470;DHT22;36499;46.484;13.832;2023-07-29T01:35:13;16.00;99.90
12470;DHT22;36499;46.484;13.832;2023-07-29T01:37:49;16.00;99.90
12470;DHT22;36499;46.484;13.832;2023-07-29T01:40:22;16.00;99.90
12470;DHT22;36499;46.484;13.832;2023-07-29T01:42:53;16.10;99.90
12470;DHT22;36499;46.484;13.832;2023-07-29T01:45:23;16.10;99.90
12470;DHT22;36499;46.484;13.832;2023-07-29T01:47:51;16.10;99.90
12470;DHT22;36499;46.484;13.832;2023-07-29T01:50:18;16.20;99.90
12470;DHT22;36499;46.484;13.832;2023-07-29T01:52:45;16.20;99.90
12470;DHT22;36499;46.484;13.832;2023-07-29T01:55:12;16.40;99.90
12470;DHT22;36499;46.484;13.832;2023-07-29T01:57:41;16.50;99.90
12470;DHT22;36499;46.484;13.832;2023-07-29T02:00:08;16.60;99.90
12470;DHT22;36499;46.484;13.832;2023-07-29T02:02:36;16.80;99.90
12470;DHT22;36499;46.484;13.832;2023-07-29T02:05:03;16.90;99.90
12470;DHT22;36499;46.484;13.832;2023-07-29T02:07:31;16.90;99.90
12470;DHT22;36499;46.484;13.832;2023-07-29T02:09:58;16.90;99.90
12470;DHT22;36499;46.484;13.832;2023-07-29T02:12:25;16.90;99.90
12470;DHT22;36499;46.484;13.832;2023-07-29T02:14:53;16.80;99.90
12470;DHT22;36499;46.484;13.832;2023-07-29T02:17:21;16.80;99.90
12470;DHT22;36499;46.484;13.832;2023-07-29T02:19:48;16.70;99.90
12470;DHT22;36499;46.484;13.832;2023-07-29T02:22:17;16.60;99.90
12470;DHT22;36499;46.484;13.832;2023-07-29T02:24:45;16.50;99.90
12470;DHT22;36499;46.484;13.832;2023-07-29T02:27:12;16.40;99.90
12470;DHT22;36499;46.484;13.832;2023-07-29T02:29:39;16.30;99.90
12470;DHT22;36499;46.484;13.832;2023-07-29T02:32:07;16.20;99.90
12470;DHT22;36499;46.484;13.832;2023-07-29T02:34:34;16.10;99.90
12470;DHT22;36499;46.484;13.832;2023-07-29T02:37:01;16.10;99.90
12470;DHT22;36499;46.484;13.832;2023-07-29T02:39:29;16.00;99.90
12470;DHT22;36499;46.484;13.832;2023-07-29T02:41:56;15.90;99.90
12470;DHT22;36499;46.484;13.832;2023-07-29T02:44:24;15.80;99.90
12470;DHT22;36499;46.484;13.832;2023-07-29T02:46:51;15.70;99.90
12470;DHT22;36499;46.484;13.832;2023-07-29T02:49:21;15.70;99.90
12470;DHT22;36499;46.484;13.832;2023-07-29T02:51:48;15.60;99.90
12470;DHT22;36499;46.484;13.832;2023-07-29T02:54:15;15.60;99.90
12470;DHT22;36499;46.484;13.832;2023-07-29T02:56:42;15.50;99.90
12470;DHT22;36499;46.484;13.832;2023-07-29T02:59:09;15.50;99.90
12470;DHT22;36499;46.484;13.832;2023-07-29T03:01:36;15.50;99.90
12470;DHT22;36499;46.484;13.832;2023-07-29T03:04:04;15.50;99.90
12470;DHT22;36499;46.484;13.832;2023-07-29T03:06:32;15.50;99.90
12470;DHT22;36499;46.484;13.832;2023-07-29T03:08:59;15.50;99.90
12470;DHT22;36499;46.484;13.832;2023-07-29T03:11:26;15.60;99.90
12470;DHT22;36499;46.484;13.832;2023-07-29T03:13:53;15.60;99.90
12470;DHT22;36499;46.484;13.832;2023-07-29T03:16:20;15.60;99.90
12470;DHT22;36499;46.484;13.832;2023-07-29T03:18:48;15.60;99.90
12470;DHT22;36499;46.484;13.832;2023-07-29T03:21:15;15.60;99.90
12470;DHT22;36499;46.484;13.832;2023-07-29T03:23:44;15.60;99.90
12470;DHT22;36499;46.484;13.832;2023-07-29T03:26:11;15.60;99.90
12470;DHT22;36499;46.484;13.832;2023-07-29T03:28:39;15.60;99.90
12470;DHT22;36499;46.484;13.832;2023-07-29T03:31:08;15.70;99.90
12470;DHT22;36499;46.484;13.832;2023-07-29T03:33:35;15.70;99.90
12470;DHT22;36499;46.484;13.832;2023-07-29T03:36:02;15.70;99.90
12470;DHT22;36499;46.484;13.832;2023-07-29T03:38:30;15.70;99.90
12470;DHT22;36499;46.484;13.832;2023-07-29T03:40:59;15.60;99.90
12470;DHT22;36499;46.484;13.832;2023-07-29T03:43:27;15.60;99.90
12470;DHT22;36499;46.484;13.832;2023-07-29T03:45:55;15.60;99.90
12470;DHT22;36499;46.484;13.832;2023-07-29T03:48:22;15.50;99.90
12470;DHT22;36499;46.484;13.832;2023-07-29T03:50:49;15.40;99.90
12470;DHT22;36499;46.484;13.832;2023-07-29T03:53:16;15.40;99.90
12470;DHT22;36499;46.484;13.832;2023-07-29T03:55:43;15.30;99.90
12470;DHT22;36499;46.484;13.832;2023-07-29T03:58:12;15.30;99.90
12470;DHT22;36499;46.484;13.832;2023-07-29T04:00:39;15.30;99.90
12470;DHT22;36499;46.484;13.832;2023-07-29T04:03:06;15.30;99.90
12470;DHT22;36499;46.484;13.832;2023-07-29T04:05:33;15.30;99.90
12470;DHT22;36499;46.484;13.832;2023-07-29T04:08:06;15.30;99.90
12470;DHT22;36499;46.484;13.832;2023-07-29T04:10:33;15.30;99.90
12470;DHT22;36499;46.484;13.832;2023-07-29T04:13:00;15.30;99.90
12470;DHT22;36499;46.484;13.832;2023-07-29T04:15:29;15.30;99.90
12470;DHT22;36499;46.484;13.832;2023-07-29T04:17:56;15.30;99.90
12470;DHT22;36499;46.484;13.832;2023-07-29T04:20:23;15.30;99.90
12470;DHT22;36499;46.484;13.832;2023-07-29T04:22:50;15.30;99.90
12470;DHT22;36499;46.484;13.832;2023-07-29T04:25:17;15.30;99.90
12470;DHT22;36499;46.484;13.832;2023-07-29T04:27:45;15.30;99.90
12470;DHT22;36499;46.484;13.832;2023-07-29T04:30:12;15.30;99.90
12470;DHT22;36499;46.484;13.832;2023-07-29T04:32:40;15.20;99.90
12470;DHT22;36499;46.484;13.832;2023-07-29T04:35:08;15.20;99.90
12470;DHT22;36499;46.484;13.832;2023-07-29T04:37:35;15.20;99.90
12470;DHT22;36499;46.484;13.832;2023-07-29T04:40:03;15.20;99.90
12470;DHT22;36499;46.484;13.832;2023-07-29T04:42:30;15.20;99.90
12470;DHT22;36499;46.484;13.832;2023-07-29T04:44:57;15.20;99.90
12470;DHT22;36499;46.484;13.832;2023-07-29T04:47:24;15.20;99.90
12470;DHT22;36499;46.484;13.832;2023-07-29T04:49:53;15.20;99.90
12470;DHT22;36499;46.484;13.832;2023-07-29T04:52:20;15.30;99.90
12470;DHT22;36499;46.484;13.832;2023-07-29T04:54:47;15.30;99.90
12470;DHT22;36499;46.484;13.832;2023-07-29T04:57:14;15.30;99.90
12470;DHT22;36499;46.484;13.832;2023-07-29T04:59:41;15.30;99.90
12470;DHT22;36499;46.484;13.832;2023-07-29T05:02:08;15.20;99.90
12470;DHT22;36499;46.484;13.832;2023-07-29T05:04:35;15.20;99.90
12470;DHT22;36499;46.484;13.832;2023-07-29T05:07:05;15.20;99.90
12470;DHT22;36499;46.484;13.832;2023-07-29T05:09:32;15.20;99.90
12470;DHT22;36499;46.484;13.832;2023-07-29T05:11:59;15.10;99.90
12470;DHT22;36499;46.484;13.832;2023-07-29T05:14:26;15.10;99.90
12470;DHT22;36499;46.484;13.832;2023-07-29T05:16:53;15.10;99.90
12470;DHT22;36499;46.484;13.832;2023-07-29T05:19:20;15.20;99.90
12470;DHT22;36499;46.484;13.832;2023-07-29T05:21:47;15.20;99.90
12470;DHT22;36499;46.484;13.832;2023-07-29T05:24:16;15.20;99.90
12470;DHT22;36499;46.484;13.832;2023-07-29T05:26:43;15.30;99.90
12470;DHT22;36499;46.484;13.832;2023-07-29T05:29:10;15.30;99.90
12470;DHT22;36499;46.484;13.832;2023-07-29T05:31:37;15.30;99.90
12470;DHT22;36499;46.484;13.832;2023-07-29T05:34:04;15.30;99.90
12470;DHT22;36499;46.484;13.832;2023-07-29T05:36:31;15.40;99.90
12470;DHT22;36499;46.484;13.832;2023-07-29T05:38:58;15.40;99.90
12470;DHT22;36499;46.484;13.832;2023-07-29T05:41:27;15.40;99.90
12470;DHT22;36499;46.484;13.832;2023-07-29T05:43:54;15.50;99.90
12470;DHT22;36499;46.484;13.832;2023-07-29T05:46:21;15.50;99.90
12470;DHT22;36499;46.484;13.832;2023-07-29T05:48:48;15.60;99.90
12470;DHT22;36499;46.484;13.832;2023-07-29T05:51:15;15.70;99.90
12470;DHT22;36499;46.484;13.832;2023-07-29T05:53:42;15.80;99.90
12470;DHT22;36499;46.484;13.832;2023-07-29T05:56:09;15.80;99.90
12470;DHT22;36499;46.484;13.832;2023-07-29T05:58:38;15.90;99.90
12470;DHT22;36499;46.484;13.832;2023-07-29T06:01:05;15.90;99.90
12470;DHT22;36499;46.484;13.832;2023-07-29T06:03:32;15.90;99.90
12470;DHT22;36499;46.484;13.832;2023-07-29T06:05:59;15.90;99.90
12470;DHT22;36499;46.484;13.832;2023-07-29T06:08:26;15.90;99.90
12470;DHT22;36499;46.484;13.832;2023-07-29T06:10:54;16.00;99.90
12470;DHT22;36499;46.484;13.832;2023-07-29T06:13:22;16.00;99.90
12470;DHT22;36499;46.484;13.832;2023-07-29T06:15:50;16.10;99.90
12470;DHT22;36499;46.484;13.832;2023-07-29T06:18:17;16.10;99.90
12470;DHT22;36499;46.484;13.832;2023-07-29T06:20:44;16.30;99.90
12470;DHT22;36499;46.484;13.832;2023-07-29T06:23:11;16.30;99.90
12470;DHT22;36499;46.484;13.832;2023-07-29T06:25:38;16.40;99.90
12470;DHT22;36499;46.484;13.832;2023-07-29T06:28:05;16.60;99.90
12470;DHT22;36499;46.484;13.832;2023-07-29T06:30:32;16.60;99.90
12470;DHT22;36499;46.484;13.832;2023-07-29T06:33:01;16.70;99.90
12470;DHT22;36499;46.484;13.832;2023-07-29T06:35:28;16.80;99.90
12470;DHT22;36499;46.484;13.832;2023-07-29T06:37:55;16.90;99.90
12470;DHT22;36499;46.484;13.832;2023-07-29T06:40:23;17.00;99.90
12470;DHT22;36499;46.484;13.832;2023-07-29T06:42:50;17.10;99.90
12470;DHT22;36499;46.484;13.832;2023-07-29T06:45:17;17.20;99.90
12470;DHT22;36499;46.484;13.832;2023-07-29T06:47:44;17.20;99.90
12470;DHT22;36499;46.484;13.832;2023-07-29T06:50:13;17.20;99.90
12470;DHT22;36499;46.484;13.832;2023-07-29T06:52:40;17.30;99.90
12470;DHT22;36499;46.484;13.832;2023-07-29T06:55:08;17.40;99.90
12470;DHT22;36499;46.484;13.832;2023-07-29T06:57:35;17.50;99.90
12470;DHT22;36499;46.484;13.832;2023-07-29T07:00:02;17.70;99.90
12470;DHT22;36499;46.484;13.832;2023-07-29T07:02:30;17.80;99.90
12470;DHT22;36499;46.484;13.832;2023-07-29T07:04:57;17.90;99.90
12470;DHT22;36499;46.484;13.832;2023-07-29T07:07:25;18.00;99.90
12470;DHT22;36499;46.484;13.832;2023-07-29T07:09:52;18.10;99.90
12470;DHT22;36499;46.484;13.832;2023-07-29T07:12:19;18.20;99.90
12470;DHT22;36499;46.484;13.832;2023-07-29T07:14:46;18.40;99.90
12470;DHT22;36499;46.484;13.832;2023-07-29T07:17:14;18.50;99.90
12470;DHT22;36499;46.484;13.832;2023-07-29T07:19:41;18.50;99.90
12470;DHT22;36499;46.484;13.832;2023-07-29T07:22:08;18.50;99.90
12470;DHT22;36499;46.484;13.832;2023-07-29T07:24:36;18.60;99.90
12470;DHT22;36499;46.484;13.832;2023-07-29T07:27:04;18.70;99.90
12470;DHT22;36499;46.484;13.832;2023-07-29T07:29:31;18.80;99.90
12470;DHT22;36499;46.484;13.832;2023-07-29T07:31:58;18.80;99.90
12470;DHT22;36499;46.484;13.832;2023-07-29T07:34:26;19.00;99.90
12470;DHT22;36499;46.484;13.832;2023-07-29T07:36:53;19.10;99.90
12470;DHT22;36499;46.484;13.832;2023-07-29T07:42:43;19.20;99.90
12470;DHT22;36499;46.484;13.832;2023-07-29T07:45:10;19.40;99.90
12470;DHT22;36499;46.484;13.832;2023-07-29T07:47:37;19.60;99.90
12470;DHT22;36499;46.484;13.832;2023-07-29T07:50:05;19.70;99.90
12470;DHT22;36499;46.484;13.832;2023-07-29T07:52:32;19.90;99.90
12470;DHT22;36499;46.484;13.832;2023-07-29T07:54:59;20.00;99.90
12470;DHT22;36499;46.484;13.832;2023-07-29T07:57:26;19.90;99.90
12470;DHT22;36499;46.484;13.832;2023-07-29T07:59:55;19.90;99.90
12470;DHT22;36499;46.484;13.832;2023-07-29T08:02:22;19.90;99.90
12470;DHT22;36499;46.484;13.832;2023-07-29T08:04:49;20.00;99.90
12470;DHT22;36499;46.484;13.832;2023-07-29T08:07:16;20.20;99.90
12470;DHT22;36499;46.484;13.832;2023-07-29T08:09:43;20.40;99.90
12470;DHT22;36499;46.484;13.832;2023-07-29T08:12:10;20.50;99.90
12470;DHT22;36499;46.484;13.832;2023-07-29T08:14:37;20.60;99.90
12470;DHT22;36499;46.484;13.832;2023-07-29T08:17:06;20.70;99.90
12470;DHT22;36499;46.484;13.832;2023-07-29T08:19:33;20.70;99.90
12470;DHT22;36499;46.484;13.832;2023-07-29T08:22:02;20.60;99.90
12470;DHT22;36499;46.484;13.832;2023-07-29T08:24:29;20.60;99.90
12470;DHT22;36499;46.484;13.832;2023-07-29T08:26:56;20.80;99.90
12470;DHT22;36499;46.484;13.832;2023-07-29T08:29:23;21.00;99.90
12470;DHT22;36499;46.484;13.832;2023-07-29T08:31:50;21.20;99.90
12470;DHT22;36499;46.484;13.832;2023-07-29T08:34:19;21.40;99.90
12470;DHT22;36499;46.484;13.832;2023-07-29T08:36:46;21.50;99.90
12470;DHT22;36499;46.484;13.832;2023-07-29T08:39:13;21.50;99.90
12470;DHT22;36499;46.484;13.832;2023-07-29T08:41:45;21.50;99.90
12470;DHT22;36499;46.484;13.832;2023-07-29T08:44:21;21.60;99.90
12470;DHT22;36499;46.484;13.832;2023-07-29T08:46:49;21.70;99.90
12470;DHT22;36499;46.484;13.832;2023-07-29T08:49:19;21.80;99.90
12470;DHT22;36499;46.484;13.832;2023-07-29T08:51:49;21.90;99.90
12470;DHT22;36499;46.484;13.832;2023-07-29T08:54:16;22.00;99.90
12470;DHT22;36499;46.484;13.832;2023-07-29T08:56:44;22.10;99.90
12470;DHT22;36499;46.484;13.832;2023-07-29T08:59:12;22.20;99.90
12470;DHT22;36499;46.484;13.832;2023-07-29T09:01:42;22.30;99.90
12470;DHT22;36499;46.484;13.832;2023-07-29T09:04:09;22.30;99.90
12470;DHT22;36499;46.484;13.832;2023-07-29T09:06:39;22.30;99.90
12470;DHT22;36499;46.484;13.832;2023-07-29T09:09:09;22.40;99.90
12470;DHT22;36499;46.484;13.832;2023-07-29T09:11:36;22.40;99.90
12470;DHT22;36499;46.484;13.832;2023-07-29T09:14:03;22.50;99.90
12470;DHT22;36499;46.484;13.832;2023-07-29T09:16:30;22.60;99.90
12470;DHT22;36499;46.484;13.832;2023-07-29T09:19:01;22.60;99.90
12470;DHT22;36499;46.484;13.832;2023-07-29T09:21:29;22.80;99.90
12470;DHT22;36499;46.484;13.832;2023-07-29T09:24:02;22.80;99.90
12470;DHT22;36499;46.484;13.832;2023-07-29T09:26:30;22.90;99.90
12470;DHT22;36499;46.484;13.832;2023-07-29T09:28:58;23.00;99.90
12470;DHT22;36499;46.484;13.832;2023-07-29T09:31:27;23.10;99.90
12470;DHT22;36499;46.484;13.832;2023-07-29T09:33:56;23.20;99.90
12470;DHT22;36499;46.484;13.832;2023-07-29T09:36:25;23.30;99.90
12470;DHT22;36499;46.484;13.832;2023-07-29T09:38:55;23.60;99.90
12470;DHT22;36499;46.484;13.832;2023-07-29T09:41:25;23.90;99.90
12470;DHT22;36499;46.484;13.832;2023-07-29T09:43:57;24.00;99.90
12470;DHT22;36499;46.484;13.832;2023-07-29T09:46:25;24.10;99.90
12470;DHT22;36499;46.484;13.832;2023-07-29T09:48:58;24.20;99.90
12470;DHT22;36499;46.484;13.832;2023-07-29T09:51:27;24.50;99.90
12470;DHT22;36499;46.484;13.832;2023-07-29T09:53:54;24.70;99.90
12470;DHT22;36499;46.484;13.832;2023-07-29T09:56:26;25.00;99.90
12470;DHT22;36499;46.484;13.832;2023-07-29T09:58:55;25.20;99.90
12470;DHT22;36499;46.484;13.832;2023-07-29T10:01:23;25.30;99.90
12470;DHT22;36499;46.484;13.832;2023-07-29T10:03:51;25.30;99.90
12470;DHT22;36499;46.484;13.832;2023-07-29T10:06:22;25.30;99.90
12470;DHT22;36499;46.484;13.832;2023-07-29T10:08:50;25.30;99.90
12470;DHT22;36499;46.484;13.832;2023-07-29T10:11:21;25.60;99.90
12470;DHT22;36499;46.484;13.832;2023-07-29T10:13:51;25.80;99.90
12470;DHT22;36499;46.484;13.832;2023-07-29T10:16:21;26.00;99.90
12470;DHT22;36499;46.484;13.832;2023-07-29T10:18:51;26.20;99.90
12470;DHT22;36499;46.484;13.832;2023-07-29T10:21:21;26.40;99.90
12470;DHT22;36499;46.484;13.832;2023-07-29T10:23:50;26.60;99.90
12470;DHT22;36499;46.484;13.832;2023-07-29T10:26:25;26.80;99.90
12470;DHT22;36499;46.484;13.832;2023-07-29T10:28:59;27.00;99.90
12470;DHT22;36499;46.484;13.832;2023-07-29T10:31:31;26.90;99.90
12470;DHT22;36499;46.484;13.832;2023-07-29T10:33:59;27.10;99.90
12470;DHT22;36499;46.484;13.832;2023-07-29T10:36:27;27.20;99.90
12470;DHT22;36499;46.484;13.832;2023-07-29T10:38:55;27.30;99.20
12470;DHT22;36499;46.484;13.832;2023-07-29T10:41:22;27.30;98.60
12470;DHT22;36499;46.484;13.832;2023-07-29T10:43:49;27.40;99.60
12470;DHT22;36499;46.484;13.832;2023-07-29T10:46:19;27.40;97.80
12470;DHT22;36499;46.484;13.832;2023-07-29T10:48:53;27.60;99.60
12470;DHT22;36499;46.484;13.832;2023-07-29T10:51:23;27.80;99.90
12470;DHT22;36499;46.484;13.832;2023-07-29T10:53:53;27.90;99.90
12470;DHT22;36499;46.484;13.832;2023-07-29T10:56:29;27.90;99.20
12470;DHT22;36499;46.484;13.832;2023-07-29T10:58:58;27.90;99.90
12470;DHT22;36499;46.484;13.832;2023-07-29T11:01:31;28.00;99.80
12470;DHT22;36499;46.484;13.832;2023-07-29T11:04:26;28.00;99.90
12470;DHT22;36499;46.484;13.832;2023-07-29T11:07:26;28.20;99.80
12470;DHT22;36499;46.484;13.832;2023-07-29T11:10:01;28.30;99.90
12470;DHT22;36499;46.484;13.832;2023-07-29T11:12:44;28.40;99.30
12470;DHT22;36499;46.484;13.832;2023-07-29T11:15:15;28.50;99.80
12470;DHT22;36499;46.484;13.832;2023-07-29T11:17:47;28.20;98.40
12470;DHT22;36499;46.484;13.832;2023-07-29T11:20:16;28.10;97.60
12470;DHT22;36499;46.484;13.832;2023-07-29T11:22:44;28.10;98.80
12470;DHT22;36499;46.484;13.832;2023-07-29T11:25:13;28.10;99.40
12470;DHT22;36499;46.484;13.832;2023-07-29T11:27:42;28.10;98.00
12470;DHT22;36499;46.484;13.832;2023-07-29T11:30:11;28.10;99.00
12470;DHT22;36499;46.484;13.832;2023-07-29T11:32:40;28.30;99.90
12470;DHT22;36499;46.484;13.832;2023-07-29T11:35:11;28.20;99.00
12470;DHT22;36499;46.484;13.832;2023-07-29T11:37:42;28.30;99.50
12470;DHT22;36499;46.484;13.832;2023-07-29T11:40:14;28.50;99.90
12470;DHT22;36499;46.484;13.832;2023-07-29T11:42:42;28.40;99.30
12470;DHT22;36499;46.484;13.832;2023-07-29T11:45:10;28.30;99.50
12470;DHT22;36499;46.484;13.832;2023-07-29T11:47:37;28.20;99.90
12470;DHT22;36499;46.484;13.832;2023-07-29T11:50:06;28.10;99.90
12470;DHT22;36499;46.484;13.832;2023-07-29T11:52:37;28.10;99.60
12470;DHT22;36499;46.484;13.832;2023-07-29T11:55:06;28.30;99.90
12470;DHT22;36499;46.484;13.832;2023-07-29T11:57:35;28.10;99.90
12470;DHT22;36499;46.484;13.832;2023-07-29T12:00:04;28.20;99.90
12470;DHT22;36499;46.484;13.832;2023-07-29T12:02:33;28.20;99.90
12470;DHT22;36499;46.484;13.832;2023-07-29T12:05:03;28.40;99.90
12470;DHT22;36499;46.484;13.832;2023-07-29T12:07:31;28.50;99.50
12470;DHT22;36499;46.484;13.832;2023-07-29T12:10:02;28.50;99.90
12470;DHT22;36499;46.484;13.832;2023-07-29T12:12:29;28.60;99.70
12470;DHT22;36499;46.484;13.832;2023-07-29T12:14:57;28.50;99.70
12470;DHT22;36499;46.484;13.832;2023-07-29T12:17:24;28.50;99.00
12470;DHT22;36499;46.484;13.832;2023-07-29T12:19:54;28.50;99.70
12470;DHT22;36499;46.484;13.832;2023-07-29T12:22:21;28.50;99.10
12470;DHT22;36499;46.484;13.832;2023-07-29T12:24:51;28.50;99.40
12470;DHT22;36499;46.484;13.832;2023-07-29T12:27:21;28.50;99.30
12470;DHT22;36499;46.484;13.832;2023-07-29T12:29:51;28.50;99.90
12470;DHT22;36499;46.484;13.832;2023-07-29T12:32:19;28.50;99.40
12470;DHT22;36499;46.484;13.832;2023-07-29T12:34:46;28.50;99.90
12470;DHT22;36499;46.484;13.832;2023-07-29T12:37:13;28.60;99.90
12470;DHT22;36499;46.484;13.832;2023-07-29T12:39:41;28.70;99.90
12470;DHT22;36499;46.484;13.832;2023-07-29T12:42:08;28.90;99.90
12470;DHT22;36499;46.484;13.832;2023-07-29T12:44:37;29.00;99.90
12470;DHT22;36499;46.484;13.832;2023-07-29T12:47:06;29.00;99.90
12470;DHT22;36499;46.484;13.832;2023-07-29T12:49:34;28.90;99.90
12470;DHT22;36499;46.484;13.832;2023-07-29T12:52:01;28.90;99.90
12470;DHT22;36499;46.484;13.832;2023-07-29T12:54:28;28.90;99.90
12470;DHT22;36499;46.484;13.832;2023-07-29T12:56:55;28.80;99.90
12470;DHT22;36499;46.484;13.832;2023-07-29T12:59:22;28.90;99.90
12470;DHT22;36499;46.484;13.832;2023-07-29T13:01:51;29.00;99.90
12470;DHT22;36499;46.484;13.832;2023-07-29T13:04:18;29.10;99.90
12470;DHT22;36499;46.484;13.832;2023-07-29T13:06:45;29.00;99.90
12470;DHT22;36499;46.484;13.832;2023-07-29T13:09:12;28.90;99.90
12470;DHT22;36499;46.484;13.832;2023-07-29T13:11:39;29.00;99.90
12470;DHT22;36499;46.484;13.832;2023-07-29T13:14:06;28.90;99.90
12470;DHT22;36499;46.484;13.832;2023-07-29T13:16:33;29.00;99.90
12470;DHT22;36499;46.484;13.832;2023-07-29T13:19:01;29.00;99.90
12470;DHT22;36499;46.484;13.832;2023-07-29T13:21:28;29.00;99.90
12470;DHT22;36499;46.484;13.832;2023-07-29T13:23:55;29.10;99.90
12470;DHT22;36499;46.484;13.832;2023-07-29T13:26:22;28.90;99.90
12470;DHT22;36499;46.484;13.832;2023-07-29T13:28:49;28.90;99.90
12470;DHT22;36499;46.484;13.832;2023-07-29T13:31:16;28.90;99.90
12470;DHT22;36499;46.484;13.832;2023-07-29T13:33:43;29.00;99.90
12470;DHT22;36499;46.484;13.832;2023-07-29T13:36:11;29.00;99.90
12470;DHT22;36499;46.484;13.832;2023-07-29T13:38:38;29.00;99.90
12470;DHT22;36499;46.484;13.832;2023-07-29T13:41:05;29.00;99.80
12470;DHT22;36499;46.484;13.832;2023-07-29T13:43:33;29.10;99.90
12470;DHT22;36499;46.484;13.832;2023-07-29T13:46:00;29.20;99.90
12470;DHT22;36499;46.484;13.832;2023-07-29T13:48:27;29.10;98.90
12470;DHT22;36499;46.484;13.832;2023-07-29T13:50:54;29.10;99.90
12470;DHT22;36499;46.484;13.832;2023-07-29T13:53:22;29.10;99.20
12470;DHT22;36499;46.484;13.832;2023-07-29T13:55:49;29.20;99.10
12470;DHT22;36499;46.484;13.832;2023-07-29T13:58:16;29.10;98.70
12470;DHT22;36499;46.484;13.832;2023-07-29T14:00:43;29.00;99.20
12470;DHT22;36499;46.484;13.832;2023-07-29T14:03:10;29.00;99.70
12470;DHT22;36499;46.484;13.832;2023-07-29T14:05:37;29.00;98.50
12470;DHT22;36499;46.484;13.832;2023-07-29T14:08:04;29.00;98.40
12470;DHT22;36499;46.484;13.832;2023-07-29T14:10:33;28.90;98.50
12470;DHT22;36499;46.484;13.832;2023-07-29T14:13:00;28.80;98.10
12470;DHT22;36499;46.484;13.832;2023-07-29T14:15:27;28.70;97.20
12470;DHT22;36499;46.484;13.832;2023-07-29T14:17:54;28.70;97.80
12470;DHT22;36499;46.484;13.832;2023-07-29T14:20:21;28.70;98.20
12470;DHT22;36499;46.484;13.832;2023-07-29T14:22:49;28.80;97.40
12470;DHT22;36499;46.484;13.832;2023-07-29T14:25:16;28.80;98.00
12470;DHT22;36499;46.484;13.832;2023-07-29T14:27:45;28.80;96.60
12470;DHT22;36499;46.484;13.832;2023-07-29T14:30:12;28.70;97.50
12470;DHT22;36499;46.484;13.832;2023-07-29T14:32:39;28.60;97.00
12470;DHT22;36499;46.484;13.832;2023-07-29T14:35:07;28.50;97.30
12470;DHT22;36499;46.484;13.832;2023-07-29T14:37:34;28.60;97.10
12470;DHT22;36499;46.484;13.832;2023-07-29T14:40:01;28.60;97.50
12470;DHT22;36499;46.484;13.832;2023-07-29T14:42:29;28.70;97.40
12470;DHT22;36499;46.484;13.832;2023-07-29T14:44:57;28.90;97.50
12470;DHT22;36499;46.484;13.832;2023-07-29T14:47:24;29.00;96.60
12470;DHT22;36499;46.484;13.832;2023-07-29T14:49:51;28.90;95.70
12470;DHT22;36499;46.484;13.832;2023-07-29T14:52:18;28.90;97.10
12470;DHT22;36499;46.484;13.832;2023-07-29T14:54:45;29.00;96.70
12470;DHT22;36499;46.484;13.832;2023-07-29T14:57:12;29.10;96.80
12470;DHT22;36499;46.484;13.832;2023-07-29T14:59:39;29.10;97.60
12470;DHT22;36499;46.484;13.832;2023-07-29T15:02:08;29.00;97.20
12470;DHT22;36499;46.484;13.832;2023-07-29T15:04:35;29.00;95.80
12470;DHT22;36499;46.484;13.832;2023-07-29T15:07:02;29.00;97.50
12470;DHT22;36499;46.484;13.832;2023-07-29T15:09:30;29.10;96.50
12470;DHT22;36499;46.484;13.832;2023-07-29T15:11:57;29.20;95.40
12470;DHT22;36499;46.484;13.832;2023-07-29T15:14:24;29.30;94.70
12470;DHT22;36499;46.484;13.832;2023-07-29T15:16:51;29.20;94.30
12470;DHT22;36499;46.484;13.832;2023-07-29T15:19:19;29.20;94.70
12470;DHT22;36499;46.484;13.832;2023-07-29T15:21:46;29.30;92.90
12470;DHT22;36499;46.484;13.832;2023-07-29T15:24:13;29.40;93.00
12470;DHT22;36499;46.484;13.832;2023-07-29T15:26:41;29.30;91.00
12470;DHT22;36499;46.484;13.832;2023-07-29T15:29:08;29.20;86.40